TAM8129 SABE-SBPA
Flight info
| Callsign | TAM8129 |
|---|---|
| Flight time | 1h 15m |
| Altitude | 37000 |
| Route | DORVO8 DORVO UN857 TOGEK |
| Aircraft | A320/M-SDE2E3FGHIRWXY/LB1 |
Departure
| Time | 2026-05-07 15:18 |
|---|---|
| Airport | Aeroparque Jorge Newbery (SABE) |
Arrival
| Time | 2026-05-07 16:34 |
|---|---|
| Airport | Porto Alegre-Salgado Filho International Airport (SBPA) |
| Time | Latitude | Longitude | Altitude | Speed | Heading |
|---|---|---|---|---|---|
| 2026-05-07 14:51 | -34.55702 | -58.41446 | 33 ft | 0 kts | 15° |
| 2026-05-07 15:06 | -34.55710 | -58.41449 | 33 ft | 3 kts | 11° |
| 2026-05-07 15:06 | -34.55729 | -58.41450 | 33 ft | 3 kts | 344° |
| 2026-05-07 15:07 | -34.55747 | -58.41440 | 33 ft | 3 kts | 313° |
| 2026-05-07 15:07 | -34.55757 | -58.41425 | 33 ft | 1 kts | 299° |
| 2026-05-07 15:07 | -34.55757 | -58.41424 | 33 ft | 0 kts | 299° |
| 2026-05-07 15:09 | -34.55756 | -58.41426 | 33 ft | 2 kts | 299° |
| 2026-05-07 15:09 | -34.55732 | -58.41478 | 33 ft | 9 kts | 299° |
| 2026-05-07 15:10 | -34.55720 | -58.41544 | 33 ft | 8 kts | 242° |
| 2026-05-07 15:10 | -34.55764 | -58.41586 | 33 ft | 8 kts | 215° |
| 2026-05-07 15:10 | -34.55806 | -58.41575 | 33 ft | 7 kts | 118° |
| 2026-05-07 15:10 | -34.55828 | -58.41521 | 33 ft | 7 kts | 117° |
| 2026-05-07 15:11 | -34.55855 | -58.41459 | 33 ft | 9 kts | 117° |
| 2026-05-07 15:11 | -34.55887 | -58.41383 | 33 ft | 10 kts | 117° |
| 2026-05-07 15:11 | -34.55919 | -58.41306 | 33 ft | 10 kts | 117° |
| 2026-05-07 15:11 | -34.55956 | -58.41241 | 33 ft | 9 kts | 130° |
| 2026-05-07 15:12 | -34.55989 | -58.41190 | 33 ft | 3 kts | 127° |
| 2026-05-07 15:12 | -34.56012 | -58.41153 | 33 ft | 10 kts | 127° |
| 2026-05-07 15:12 | -34.56060 | -58.41075 | 33 ft | 12 kts | 127° |
| 2026-05-07 15:12 | -34.56112 | -58.40992 | 33 ft | 12 kts | 127° |
| 2026-05-07 15:13 | -34.56160 | -58.40908 | 33 ft | 12 kts | 123° |
| 2026-05-07 15:13 | -34.56170 | -58.40822 | 33 ft | 10 kts | 118° |
| 2026-05-07 15:13 | -34.56207 | -58.40757 | 33 ft | 9 kts | 123° |
| 2026-05-07 15:13 | -34.56242 | -58.40694 | 33 ft | 9 kts | 123° |
| 2026-05-07 15:14 | -34.56274 | -58.40636 | 33 ft | 8 kts | 123° |
| 2026-05-07 15:14 | -34.56304 | -58.40582 | 33 ft | 7 kts | 127° |
| 2026-05-07 15:14 | -34.56342 | -58.40541 | 33 ft | 7 kts | 139° |
| 2026-05-07 15:14 | -34.56377 | -58.40502 | 33 ft | 7 kts | 138° |
| 2026-05-07 15:15 | -34.56411 | -58.40466 | 33 ft | 6 kts | 138° |
| 2026-05-07 15:15 | -34.56445 | -58.40429 | 33 ft | 10 kts | 137° |
| 2026-05-07 15:15 | -34.56489 | -58.40381 | 33 ft | 7 kts | 141° |
| 2026-05-07 15:15 | -34.56534 | -58.40386 | 33 ft | 6 kts | 216° |
| 2026-05-07 15:16 | -34.56562 | -58.40411 | 33 ft | 4 kts | 223° |
| 2026-05-07 15:16 | -34.56560 | -58.40435 | 33 ft | 0 kts | 305° |
| 2026-05-07 15:17 | -34.56534 | -58.40480 | 33 ft | 24 kts | 304° |
| 2026-05-07 15:17 | -34.56286 | -58.40924 | 33 ft | 102 kts | 304° |
| 2026-05-07 15:18 | -34.55767 | -58.41852 | 90 ft | 156 kts | 304° |
| 2026-05-07 15:18 | -34.55131 | -58.42984 | 662 ft | 171 kts | 304° |
| 2026-05-07 15:18 | -34.54369 | -58.44171 | 1226 ft | 178 kts | 320° |
| 2026-05-07 15:18 | -34.53330 | -58.44862 | 1722 ft | 171 kts | 343° |
| 2026-05-07 15:19 | -34.52104 | -58.44847 | 2179 ft | 183 kts | 10° |
| 2026-05-07 15:19 | -34.50853 | -58.44234 | 2470 ft | 207 kts | 25° |
| 2026-05-07 15:19 | -34.49457 | -58.43384 | 2718 ft | 244 kts | 28° |
| 2026-05-07 15:19 | -34.48098 | -58.41939 | 3151 ft | 272 kts | 54° |
| 2026-05-07 15:20 | -34.47344 | -58.39813 | 4116 ft | 281 kts | 78° |
| 2026-05-07 15:20 | -34.47333 | -58.37428 | 5136 ft | 288 kts | 99° |
| 2026-05-07 15:20 | -34.47941 | -58.35093 | 6131 ft | 295 kts | 109° |
| 2026-05-07 15:20 | -34.48589 | -58.32693 | 7074 ft | 303 kts | 108° |
| 2026-05-07 15:21 | -34.49259 | -58.30246 | 8023 ft | 310 kts | 108° |
| 2026-05-07 15:21 | -34.49959 | -58.27745 | 8957 ft | 316 kts | 107° |
| 2026-05-07 15:21 | -34.50672 | -58.25229 | 9864 ft | 322 kts | 106° |
| 2026-05-07 15:21 | -34.51427 | -58.22571 | 10194 ft | 350 kts | 105° |
| 2026-05-07 15:22 | -34.52240 | -58.19703 | 10805 ft | 364 kts | 105° |
| 2026-05-07 15:22 | -34.53080 | -58.16771 | 11525 ft | 374 kts | 105° |
| 2026-05-07 15:22 | -34.53949 | -58.13746 | 12264 ft | 382 kts | 104° |
| 2026-05-07 15:22 | -34.54835 | -58.10662 | 12977 ft | 391 kts | 104° |
| 2026-05-07 15:23 | -34.55739 | -58.07514 | 13692 ft | 399 kts | 103° |
| 2026-05-07 15:23 | -34.56657 | -58.04318 | 14464 ft | 402 kts | 103° |
| 2026-05-07 15:23 | -34.57573 | -58.01132 | 15369 ft | 402 kts | 103° |
| 2026-05-07 15:23 | -34.58496 | -57.97913 | 16132 ft | 404 kts | 102° |
| 2026-05-07 15:24 | -34.59422 | -57.94675 | 16856 ft | 407 kts | 102° |
| 2026-05-07 15:24 | -34.60355 | -57.91416 | 17588 ft | 410 kts | 102° |
| 2026-05-07 15:24 | -34.61293 | -57.88133 | 18301 ft | 413 kts | 102° |
| 2026-05-07 15:24 | -34.62229 | -57.84857 | 18936 ft | 418 kts | 102° |
| 2026-05-07 15:25 | -34.63189 | -57.81497 | 19499 ft | 424 kts | 102° |
| 2026-05-07 15:25 | -34.64161 | -57.78108 | 20128 ft | 427 kts | 102° |
| 2026-05-07 15:25 | -34.65140 | -57.74691 | 20743 ft | 430 kts | 102° |
| 2026-05-07 15:25 | -34.66125 | -57.71243 | 21269 ft | 434 kts | 102° |
| 2026-05-07 15:26 | -34.67133 | -57.67714 | 21796 ft | 438 kts | 102° |
| 2026-05-07 15:26 | -34.68126 | -57.64240 | 22295 ft | 441 kts | 102° |
| 2026-05-07 15:26 | -34.69134 | -57.60719 | 22822 ft | 443 kts | 101° |
| 2026-05-07 15:26 | -34.70102 | -57.57148 | 23299 ft | 441 kts | 95° |
| 2026-05-07 15:27 | -34.70422 | -57.53535 | 23776 ft | 423 kts | 78° |
| 2026-05-07 15:27 | -34.69938 | -57.50109 | 24243 ft | 402 kts | 60° |
| 2026-05-07 15:27 | -34.68730 | -57.47166 | 24695 ft | 381 kts | 43° |
| 2026-05-07 15:27 | -34.67057 | -57.44711 | 25168 ft | 376 kts | 38° |
| 2026-05-07 15:28 | -34.65348 | -57.42333 | 25598 ft | 379 kts | 38° |
| 2026-05-07 15:28 | -34.63623 | -57.39911 | 26223 ft | 377 kts | 38° |
| 2026-05-07 15:28 | -34.61900 | -57.37474 | 26523 ft | 385 kts | 38° |
| 2026-05-07 15:28 | -34.60153 | -57.34984 | 26939 ft | 388 kts | 39° |
| 2026-05-07 15:29 | -34.58409 | -57.32482 | 27407 ft | 389 kts | 39° |
| 2026-05-07 15:29 | -34.56654 | -57.29960 | 27787 ft | 393 kts | 39° |
| 2026-05-07 15:29 | -34.54875 | -57.27400 | 28147 ft | 397 kts | 39° |
| 2026-05-07 15:29 | -34.53113 | -57.24860 | 28629 ft | 397 kts | 39° |
| 2026-05-07 15:30 | -34.51340 | -57.22302 | 29020 ft | 399 kts | 39° |
| 2026-05-07 15:30 | -34.49545 | -57.19714 | 29374 ft | 402 kts | 39° |
| 2026-05-07 15:30 | -34.47741 | -57.17111 | 29815 ft | 402 kts | 39° |
| 2026-05-07 15:30 | -34.45938 | -57.14511 | 30158 ft | 405 kts | 39° |
| 2026-05-07 15:31 | -34.44113 | -57.11883 | 30452 ft | 408 kts | 39° |
| 2026-05-07 15:31 | -34.42280 | -57.09242 | 30799 ft | 410 kts | 39° |
| 2026-05-07 15:31 | -34.40434 | -57.06585 | 31046 ft | 415 kts | 40° |
| 2026-05-07 15:31 | -34.38565 | -57.03896 | 31317 ft | 419 kts | 40° |
| 2026-05-07 15:32 | -34.36686 | -57.01194 | 31582 ft | 422 kts | 40° |
| 2026-05-07 15:32 | -34.34811 | -56.98497 | 31888 ft | 425 kts | 40° |
| 2026-05-07 15:32 | -34.32874 | -56.95714 | 32133 ft | 429 kts | 40° |
| 2026-05-07 15:32 | -34.30972 | -56.92983 | 32391 ft | 432 kts | 40° |
| 2026-05-07 15:33 | -34.29026 | -56.90189 | 32646 ft | 436 kts | 40° |
| 2026-05-07 15:33 | -34.27066 | -56.87376 | 32900 ft | 439 kts | 41° |
| 2026-05-07 15:33 | -34.25090 | -56.84555 | 33155 ft | 442 kts | 40° |
| 2026-05-07 15:33 | -34.23090 | -56.81722 | 33411 ft | 445 kts | 41° |
| 2026-05-07 15:34 | -34.21068 | -56.78855 | 33666 ft | 449 kts | 41° |
| 2026-05-07 15:34 | -34.19038 | -56.75975 | 33921 ft | 452 kts | 41° |
| 2026-05-07 15:34 | -34.16992 | -56.73073 | 34171 ft | 455 kts | 41° |
| 2026-05-07 15:34 | -34.15632 | -56.71143 | 34354 ft | 457 kts | 41° |
| 2026-05-07 15:35 | -34.13563 | -56.68206 | 34684 ft | 458 kts | 41° |
| 2026-05-07 15:35 | -34.11499 | -56.65277 | 35010 ft | 458 kts | 42° |
| 2026-05-07 15:35 | -34.09424 | -56.62334 | 35329 ft | 459 kts | 42° |
| 2026-05-07 15:35 | -34.07352 | -56.59396 | 35648 ft | 460 kts | 42° |
| 2026-05-07 15:36 | -34.05274 | -56.56449 | 35962 ft | 461 kts | 42° |
| 2026-05-07 15:36 | -34.03195 | -56.53503 | 36265 ft | 461 kts | 43° |
| 2026-05-07 15:36 | -34.01111 | -56.50552 | 36509 ft | 463 kts | 43° |
| 2026-05-07 15:36 | -33.99011 | -56.47580 | 36605 ft | 465 kts | 43° |
| 2026-05-07 15:37 | -33.94851 | -56.41691 | 36636 ft | 463 kts | 43° |
| 2026-05-07 15:37 | -33.90676 | -56.35788 | 36638 ft | 462 kts | 43° |
| 2026-05-07 15:38 | -33.86493 | -56.29924 | 36638 ft | 461 kts | 42° |
| 2026-05-07 15:38 | -33.82269 | -56.24061 | 36640 ft | 467 kts | 42° |
| 2026-05-07 15:39 | -33.77948 | -56.18078 | 36639 ft | 477 kts | 44° |
| 2026-05-07 15:39 | -33.73635 | -56.12066 | 36638 ft | 480 kts | 45° |
| 2026-05-07 15:40 | -33.69271 | -56.05979 | 36638 ft | 481 kts | 45° |
| 2026-05-07 15:40 | -33.64911 | -55.99881 | 36638 ft | 480 kts | 45° |
| 2026-05-07 15:41 | -33.60575 | -55.93827 | 36638 ft | 479 kts | 45° |
| 2026-05-07 15:41 | -33.56219 | -55.87760 | 36638 ft | 480 kts | 45° |
| 2026-05-07 15:42 | -33.51853 | -55.81689 | 36638 ft | 480 kts | 45° |
| 2026-05-07 15:42 | -33.47517 | -55.75669 | 36638 ft | 480 kts | 45° |
| 2026-05-07 15:43 | -33.43142 | -55.69607 | 36638 ft | 480 kts | 45° |
| 2026-05-07 15:43 | -33.38766 | -55.63556 | 36638 ft | 480 kts | 45° |
| 2026-05-07 15:44 | -33.34386 | -55.57511 | 36638 ft | 480 kts | 45° |
| 2026-05-07 15:44 | -33.30002 | -55.51470 | 36638 ft | 480 kts | 45° |
| 2026-05-07 15:45 | -33.25621 | -55.45443 | 36638 ft | 480 kts | 45° |
| 2026-05-07 15:45 | -33.21235 | -55.39421 | 36638 ft | 480 kts | 45° |
| 2026-05-07 15:46 | -33.14678 | -55.30436 | 36638 ft | 480 kts | 45° |
| 2026-05-07 15:47 | -33.10274 | -55.24414 | 36638 ft | 480 kts | 45° |
| 2026-05-07 15:47 | -33.05883 | -55.18420 | 36638 ft | 480 kts | 45° |
| 2026-05-07 15:48 | -33.01484 | -55.12425 | 36638 ft | 480 kts | 45° |
| 2026-05-07 15:48 | -32.97081 | -55.06436 | 36638 ft | 480 kts | 45° |
| 2026-05-07 15:49 | -32.92679 | -55.00456 | 36631 ft | 483 kts | 44° |
| 2026-05-07 15:49 | -32.88253 | -54.94456 | 36613 ft | 487 kts | 44° |
| 2026-05-07 15:50 | -32.83743 | -54.88357 | 36609 ft | 494 kts | 45° |
| 2026-05-07 15:50 | -32.79214 | -54.82227 | 36612 ft | 489 kts | 44° |
| 2026-05-07 15:51 | -32.74702 | -54.76142 | 36609 ft | 491 kts | 44° |
| 2026-05-07 15:51 | -32.70174 | -54.70047 | 36609 ft | 494 kts | 44° |
| 2026-05-07 15:52 | -32.65621 | -54.63925 | 36609 ft | 495 kts | 45° |
| 2026-05-07 15:52 | -32.61058 | -54.57798 | 36609 ft | 495 kts | 45° |
| 2026-05-07 15:53 | -32.56542 | -54.51730 | 36610 ft | 487 kts | 43° |
| 2026-05-07 15:53 | -32.52061 | -54.45749 | 36609 ft | 488 kts | 43° |
| 2026-05-07 15:54 | -32.47557 | -54.39735 | 36609 ft | 488 kts | 43° |
| 2026-05-07 15:54 | -32.43053 | -54.33729 | 36609 ft | 487 kts | 43° |
| 2026-05-07 15:55 | -32.38549 | -54.27734 | 36609 ft | 487 kts | 43° |
| 2026-05-07 15:55 | -32.34037 | -54.21729 | 36609 ft | 488 kts | 44° |
| 2026-05-07 15:56 | -32.29558 | -54.15701 | 36609 ft | 488 kts | 44° |
| 2026-05-07 15:56 | -32.25111 | -54.09701 | 36609 ft | 488 kts | 44° |
| 2026-05-07 15:57 | -32.20642 | -54.03671 | 36609 ft | 488 kts | 44° |
| 2026-05-07 15:57 | -32.16175 | -53.97643 | 36609 ft | 488 kts | 44° |
| 2026-05-07 15:58 | -32.11693 | -53.91597 | 36609 ft | 488 kts | 44° |
| 2026-05-07 15:58 | -32.07222 | -53.85569 | 36609 ft | 488 kts | 44° |
| 2026-05-07 15:59 | -32.02735 | -53.79558 | 36609 ft | 488 kts | 44° |
| 2026-05-07 15:59 | -31.98244 | -53.73557 | 36609 ft | 488 kts | 44° |
| 2026-05-07 16:00 | -31.93757 | -53.67559 | 36609 ft | 488 kts | 44° |
| 2026-05-07 16:00 | -31.89262 | -53.61554 | 36609 ft | 488 kts | 44° |
| 2026-05-07 16:01 | -31.84780 | -53.55570 | 36609 ft | 488 kts | 44° |
| 2026-05-07 16:01 | -31.80290 | -53.49589 | 36597 ft | 486 kts | 44° |
| 2026-05-07 16:02 | -31.75838 | -53.43663 | 36590 ft | 486 kts | 44° |
| 2026-05-07 16:02 | -31.71364 | -53.37702 | 36592 ft | 487 kts | 44° |
| 2026-05-07 16:03 | -31.66885 | -53.31747 | 36593 ft | 486 kts | 44° |
| 2026-05-07 16:03 | -31.62401 | -53.25795 | 36590 ft | 486 kts | 44° |
| 2026-05-07 16:04 | -31.57923 | -53.19859 | 36588 ft | 486 kts | 44° |
| 2026-05-07 16:04 | -31.53436 | -53.13919 | 36589 ft | 486 kts | 44° |
| 2026-05-07 16:05 | -31.48947 | -53.07984 | 36589 ft | 486 kts | 44° |
| 2026-05-07 16:05 | -31.44492 | -53.02106 | 36587 ft | 485 kts | 44° |
| 2026-05-07 16:06 | -31.40011 | -52.96201 | 36586 ft | 485 kts | 44° |
| 2026-05-07 16:06 | -31.35516 | -52.90287 | 36595 ft | 487 kts | 44° |
| 2026-05-07 16:07 | -31.31003 | -52.84367 | 36598 ft | 487 kts | 44° |
| 2026-05-07 16:07 | -31.26472 | -52.78502 | 36600 ft | 486 kts | 44° |
| 2026-05-07 16:08 | -31.21931 | -52.72617 | 36600 ft | 486 kts | 44° |
| 2026-05-07 16:08 | -31.17417 | -52.66774 | 36423 ft | 475 kts | 44° |
| 2026-05-07 16:08 | -31.15213 | -52.63919 | 35423 ft | 476 kts | 44° |
| 2026-05-07 16:09 | -31.12985 | -52.61035 | 34296 ft | 479 kts | 44° |
| 2026-05-07 16:09 | -31.10741 | -52.58129 | 33166 ft | 481 kts | 44° |
| 2026-05-07 16:09 | -31.08501 | -52.55228 | 32040 ft | 481 kts | 44° |
| 2026-05-07 16:09 | -31.06269 | -52.52334 | 31161 ft | 476 kts | 44° |
| 2026-05-07 16:10 | -31.04073 | -52.49484 | 30280 ft | 470 kts | 44° |
| 2026-05-07 16:10 | -31.01921 | -52.46690 | 29468 ft | 465 kts | 44° |
| 2026-05-07 16:10 | -30.99776 | -52.43902 | 28606 ft | 460 kts | 43° |
| 2026-05-07 16:10 | -30.97652 | -52.41136 | 27830 ft | 454 kts | 43° |
| 2026-05-07 16:11 | -30.95556 | -52.38410 | 27060 ft | 449 kts | 42° |
| 2026-05-07 16:11 | -30.93479 | -52.35710 | 26303 ft | 444 kts | 41° |
| 2026-05-07 16:11 | -30.91429 | -52.33050 | 25596 ft | 439 kts | 40° |
| 2026-05-07 16:11 | -30.89375 | -52.30459 | 24869 ft | 430 kts | 36° |
| 2026-05-07 16:12 | -30.87132 | -52.28256 | 24188 ft | 416 kts | 29° |
| 2026-05-07 16:12 | -30.84845 | -52.26221 | 23445 ft | 411 kts | 28° |
| 2026-05-07 16:12 | -30.82579 | -52.24223 | 22667 ft | 407 kts | 28° |
| 2026-05-07 16:12 | -30.80329 | -52.22243 | 21947 ft | 402 kts | 28° |
| 2026-05-07 16:13 | -30.78108 | -52.20290 | 21248 ft | 398 kts | 28° |
| 2026-05-07 16:13 | -30.75919 | -52.18363 | 20685 ft | 390 kts | 28° |
| 2026-05-07 16:13 | -30.73811 | -52.16506 | 20257 ft | 380 kts | 28° |
| 2026-05-07 16:13 | -30.71725 | -52.14671 | 19839 ft | 372 kts | 28° |
| 2026-05-07 16:14 | -30.69684 | -52.12878 | 19430 ft | 364 kts | 28° |
| 2026-05-07 16:14 | -30.67678 | -52.11117 | 19030 ft | 357 kts | 28° |
| 2026-05-07 16:14 | -30.65709 | -52.09390 | 18638 ft | 350 kts | 28° |
| 2026-05-07 16:14 | -30.63781 | -52.07701 | 18255 ft | 344 kts | 28° |
| 2026-05-07 16:15 | -30.61883 | -52.06039 | 17878 ft | 339 kts | 28° |
| 2026-05-07 16:15 | -30.60021 | -52.04408 | 17508 ft | 333 kts | 28° |
| 2026-05-07 16:15 | -30.58167 | -52.02789 | 17142 ft | 332 kts | 28° |
| 2026-05-07 16:15 | -30.56329 | -52.01183 | 16779 ft | 330 kts | 28° |
| 2026-05-07 16:16 | -30.54520 | -51.99601 | 16421 ft | 327 kts | 28° |
| 2026-05-07 16:16 | -30.52713 | -51.98022 | 16067 ft | 325 kts | 28° |
| 2026-05-07 16:16 | -30.50909 | -51.96446 | 15717 ft | 323 kts | 28° |
| 2026-05-07 16:16 | -30.49150 | -51.94807 | 15449 ft | 327 kts | 36° |
| 2026-05-07 16:17 | -30.47647 | -51.92787 | 15382 ft | 331 kts | 39° |
| 2026-05-07 16:17 | -30.46118 | -51.90792 | 15307 ft | 331 kts | 39° |
| 2026-05-07 16:17 | -30.44602 | -51.88784 | 15228 ft | 334 kts | 43° |
| 2026-05-07 16:17 | -30.43410 | -51.86415 | 15151 ft | 347 kts | 58° |
| 2026-05-07 16:18 | -30.42445 | -51.83859 | 15081 ft | 346 kts | 58° |
| 2026-05-07 16:18 | -30.41479 | -51.81303 | 15006 ft | 346 kts | 58° |
| 2026-05-07 16:18 | -30.40529 | -51.78744 | 14930 ft | 345 kts | 58° |
| 2026-05-07 16:18 | -30.39589 | -51.76186 | 14855 ft | 345 kts | 58° |
| 2026-05-07 16:19 | -30.38658 | -51.73629 | 14771 ft | 344 kts | 59° |
| 2026-05-07 16:19 | -30.37729 | -51.71072 | 14696 ft | 344 kts | 59° |
| 2026-05-07 16:19 | -30.36805 | -51.68517 | 14621 ft | 344 kts | 59° |
| 2026-05-07 16:19 | -30.35881 | -51.65961 | 14429 ft | 344 kts | 59° |
| 2026-05-07 16:20 | -30.34977 | -51.63454 | 14065 ft | 340 kts | 59° |
| 2026-05-07 16:20 | -30.34070 | -51.60935 | 13687 ft | 336 kts | 59° |
| 2026-05-07 16:20 | -30.33175 | -51.58453 | 13323 ft | 333 kts | 59° |
| 2026-05-07 16:20 | -30.32292 | -51.56004 | 12986 ft | 331 kts | 59° |
| 2026-05-07 16:21 | -30.31403 | -51.53542 | 12611 ft | 328 kts | 59° |
| 2026-05-07 16:21 | -30.30817 | -51.51928 | 12362 ft | 325 kts | 59° |
| 2026-05-07 16:21 | -30.29948 | -51.49531 | 12024 ft | 323 kts | 60° |
| 2026-05-07 16:21 | -30.28793 | -51.46337 | 11511 ft | 319 kts | 60° |
| 2026-05-07 16:22 | -30.28219 | -51.44746 | 11264 ft | 316 kts | 60° |
| 2026-05-07 16:22 | -30.27385 | -51.42439 | 10988 ft | 312 kts | 60° |
| 2026-05-07 16:22 | -30.26565 | -51.40167 | 10882 ft | 304 kts | 60° |
| 2026-05-07 16:22 | -30.25749 | -51.37913 | 10580 ft | 302 kts | 60° |
| 2026-05-07 16:23 | -30.24944 | -51.35694 | 10252 ft | 298 kts | 60° |
| 2026-05-07 16:23 | -30.24159 | -51.33523 | 10162 ft | 285 kts | 60° |
| 2026-05-07 16:23 | -30.23546 | -51.31828 | 10089 ft | 280 kts | 59° |
| 2026-05-07 16:23 | -30.22788 | -51.29748 | 9986 ft | 280 kts | 59° |
| 2026-05-07 16:24 | -30.22030 | -51.27666 | 9701 ft | 279 kts | 59° |
| 2026-05-07 16:24 | -30.21282 | -51.25610 | 9396 ft | 276 kts | 59° |
| 2026-05-07 16:24 | -30.20540 | -51.23575 | 9086 ft | 274 kts | 59° |
| 2026-05-07 16:24 | -30.19798 | -51.21541 | 8778 ft | 274 kts | 59° |
| 2026-05-07 16:25 | -30.19054 | -51.19507 | 8452 ft | 277 kts | 59° |
| 2026-05-07 16:25 | -30.18302 | -51.17451 | 8116 ft | 276 kts | 59° |
| 2026-05-07 16:25 | -30.17559 | -51.15414 | 7803 ft | 274 kts | 59° |
| 2026-05-07 16:25 | -30.16819 | -51.13390 | 7475 ft | 272 kts | 59° |
| 2026-05-07 16:26 | -30.16086 | -51.11389 | 7167 ft | 270 kts | 59° |
| 2026-05-07 16:26 | -30.15355 | -51.09391 | 6865 ft | 270 kts | 59° |
| 2026-05-07 16:26 | -30.14620 | -51.07390 | 6548 ft | 269 kts | 59° |
| 2026-05-07 16:26 | -30.13894 | -51.05408 | 6232 ft | 267 kts | 59° |
| 2026-05-07 16:27 | -30.13168 | -51.03430 | 5896 ft | 266 kts | 59° |
| 2026-05-07 16:27 | -30.12443 | -51.01458 | 5569 ft | 265 kts | 59° |
| 2026-05-07 16:27 | -30.11733 | -50.99524 | 5244 ft | 264 kts | 59° |
| 2026-05-07 16:27 | -30.11016 | -50.97576 | 4890 ft | 264 kts | 59° |
| 2026-05-07 16:28 | -30.10113 | -50.95754 | 4555 ft | 251 kts | 41° |
| 2026-05-07 16:28 | -30.08758 | -50.94609 | 4058 ft | 242 kts | 16° |
| 2026-05-07 16:28 | -30.07155 | -50.94306 | 3661 ft | 231 kts | 352° |
| 2026-05-07 16:28 | -30.05647 | -50.94829 | 3305 ft | 225 kts | 332° |
| 2026-05-07 16:29 | -30.04266 | -50.95640 | 3020 ft | 221 kts | 331° |
| 2026-05-07 16:29 | -30.02914 | -50.96456 | 2736 ft | 217 kts | 330° |
| 2026-05-07 16:29 | -30.01602 | -50.97289 | 2468 ft | 213 kts | 327° |
| 2026-05-07 16:29 | -30.00554 | -50.98435 | 2302 ft | 207 kts | 307° |
| 2026-05-07 16:30 | -30.00031 | -50.99975 | 2085 ft | 207 kts | 285° |
| 2026-05-07 16:30 | -29.99921 | -51.01664 | 1948 ft | 210 kts | 280° |
| 2026-05-07 16:30 | -29.99837 | -51.03268 | 1812 ft | 187 kts | 279° |
| 2026-05-07 16:30 | -29.99785 | -51.04640 | 1674 ft | 155 kts | 281° |
| 2026-05-07 16:31 | -29.99743 | -51.05801 | 1565 ft | 137 kts | 283° |
| 2026-05-07 16:31 | -29.99732 | -51.06880 | 1476 ft | 128 kts | 284° |
| 2026-05-07 16:31 | -29.99689 | -51.07916 | 1302 ft | 130 kts | 283° |
| 2026-05-07 16:31 | -29.99657 | -51.08940 | 1090 ft | 126 kts | 282° |
| 2026-05-07 16:32 | -29.99624 | -51.09949 | 936 ft | 131 kts | 280° |
| 2026-05-07 16:32 | -29.99590 | -51.11006 | 766 ft | 131 kts | 277° |
| 2026-05-07 16:32 | -29.99551 | -51.12060 | 637 ft | 132 kts | 274° |
| 2026-05-07 16:32 | -29.99541 | -51.13126 | 501 ft | 134 kts | 271° |
| 2026-05-07 16:33 | -29.99523 | -51.14209 | 366 ft | 135 kts | 271° |
| 2026-05-07 16:33 | -29.99500 | -51.15306 | 169 ft | 139 kts | 271° |
| 2026-05-07 16:33 | -29.99474 | -51.16406 | 27 ft | 131 kts | 270° |
| 2026-05-07 16:33 | -29.99461 | -51.17155 | 26 ft | 50 kts | 271° |
| 2026-05-07 16:34 | -29.99455 | -51.17403 | 26 ft | 28 kts | 271° |
| 2026-05-07 16:34 | -29.99451 | -51.17600 | 26 ft | 16 kts | 271° |
| 2026-05-07 16:34 | -29.99426 | -51.17699 | 26 ft | 12 kts | 336° |
| 2026-05-07 16:34 | -29.99354 | -51.17701 | 26 ft | 9 kts | 1° |
| 2026-05-07 16:35 | -29.99295 | -51.17700 | 26 ft | 8 kts | 1° |
| 2026-05-07 16:35 | -29.99240 | -51.17699 | 26 ft | 7 kts | 1° |
| 2026-05-07 16:35 | -29.99192 | -51.17702 | 26 ft | 6 kts | 342° |
| 2026-05-07 16:35 | -29.99168 | -51.17739 | 26 ft | 6 kts | 280° |
| 2026-05-07 16:36 | -29.99162 | -51.17764 | 26 ft | 1 kts | 316° |
| 2026-05-07 16:36 | -29.99148 | -51.17767 | 26 ft | 5 kts | 358° |
| 2026-05-07 16:36 | -29.99101 | -51.17767 | 26 ft | 5 kts | 1° |
| 2026-05-07 16:36 | -29.99084 | -51.17766 | 26 ft | 0 kts | 0° |